createdAt,value
2023-12-26T00:00:10.090Z,3.70
2023-12-26T00:02:45.937Z,4.00
2023-12-26T00:05:18.448Z,5.00
2023-12-26T00:13:32.315Z,5.70
2023-12-26T00:16:23.129Z,5.10
2023-12-26T00:18:57.841Z,9.80
2023-12-26T00:22:17.979Z,3.80
2023-12-26T00:25:01.978Z,10.00
2023-12-26T00:27:38.620Z,5.10
2023-12-26T00:30:11.250Z,3.70
2023-12-26T00:32:40.377Z,4.70
2023-12-26T00:35:13.529Z,4.00
2023-12-26T00:37:42.951Z,4.50
2023-12-26T00:41:27.173Z,3.80
2023-12-26T00:43:58.668Z,4.80
2023-12-26T00:46:32.920Z,4.20
2023-12-26T00:49:33.517Z,4.90
2023-12-26T00:52:10.427Z,3.80
2023-12-26T00:54:44.258Z,4.70
2023-12-26T00:57:20.116Z,5.50
2023-12-26T00:59:48.368Z,5.60
2023-12-26T01:02:17.711Z,7.80
2023-12-26T01:04:50.994Z,3.70
2023-12-26T01:07:20.765Z,5.00
2023-12-26T01:09:54.169Z,3.70
2023-12-26T01:12:26.642Z,4.20
2023-12-26T01:15:01.913Z,5.60
2023-12-26T01:17:35.466Z,5.30
2023-12-26T01:20:20.201Z,5.50
2023-12-26T01:23:03.832Z,6.30
2023-12-26T01:25:37.063Z,4.60
2023-12-26T01:28:09.378Z,6.90
2023-12-26T01:30:43.443Z,3.40
2023-12-26T01:33:20.439Z,5.00
2023-12-26T01:35:51.417Z,6.30
2023-12-26T01:38:21.990Z,5.60
2023-12-26T01:40:51.186Z,7.00
2023-12-26T01:43:22.208Z,3.50
2023-12-26T01:45:53.864Z,4.30
2023-12-26T01:48:23.698Z,5.40
2023-12-26T01:50:54.141Z,4.50
2023-12-26T01:53:26.566Z,4.30
2023-12-26T01:56:02.058Z,4.30
2023-12-26T01:58:35.566Z,5.20
2023-12-26T02:01:08.478Z,4.50
2023-12-26T02:03:42.546Z,4.00
2023-12-26T02:16:07.143Z,5.20
2023-12-26T02:28:00.385Z,5.90
2023-12-26T02:30:30.024Z,4.80
2023-12-26T02:32:57.630Z,4.50
2023-12-26T02:35:35.380Z,4.60
2023-12-26T02:38:08.829Z,5.60
2023-12-26T02:40:52.936Z,4.90
2023-12-26T02:43:24.722Z,3.90
2023-12-26T02:45:57.127Z,4.30
2023-12-26T02:48:30.241Z,5.30
2023-12-26T02:51:00.112Z,5.90
2023-12-26T02:53:38.074Z,4.00
2023-12-26T02:56:14.959Z,4.40
2023-12-26T02:58:45.563Z,5.10
2023-12-26T03:01:19.528Z,4.20
2023-12-26T03:03:49.954Z,4.20
2023-12-26T03:06:23.154Z,5.00
2023-12-26T03:08:52.860Z,5.30
2023-12-26T03:14:10.551Z,6.80
2023-12-26T03:16:44.049Z,6.10
2023-12-26T03:19:20.717Z,5.00
2023-12-26T03:21:55.327Z,5.50
2023-12-26T03:24:26.048Z,7.10
2023-12-26T03:26:55.907Z,6.40
2023-12-26T03:29:24.503Z,4.20
2023-12-26T03:31:56.742Z,5.70
2023-12-26T03:34:30.378Z,5.00
2023-12-26T03:37:02.980Z,5.10
2023-12-26T03:39:36.575Z,3.50
2023-12-26T03:42:06.122Z,8.10
2023-12-26T03:44:36.372Z,3.80
2023-12-26T03:47:07.910Z,4.20
2023-12-26T03:49:36.179Z,5.00
2023-12-26T03:52:06.763Z,4.60
2023-12-26T03:54:37.838Z,5.60
2023-12-26T03:57:18.861Z,4.50
2023-12-26T03:59:47.500Z,5.30
2023-12-26T04:02:20.360Z,4.30
2023-12-26T04:04:50.471Z,5.90
2023-12-26T04:07:21.975Z,4.70
2023-12-26T04:09:50.341Z,5.60
2023-12-26T04:12:19.634Z,5.30
2023-12-26T04:14:53.479Z,6.90
2023-12-26T04:17:29.753Z,4.60
2023-12-26T04:19:58.279Z,5.00
2023-12-26T04:22:35.254Z,4.60
2023-12-26T04:25:04.503Z,6.10
2023-12-26T04:27:35.756Z,7.00
2023-12-26T04:30:04.068Z,3.50
2023-12-26T04:32:37.173Z,6.60
2023-12-26T04:35:17.820Z,5.50
2023-12-26T04:37:49.114Z,4.50
2023-12-26T04:40:20.070Z,4.80
2023-12-26T04:44:05.792Z,7.40
2023-12-26T04:46:37.670Z,5.30
2023-12-26T04:50:24.840Z,6.00
2023-12-26T04:57:46.390Z,7.50
2023-12-26T05:00:49.143Z,4.50
2023-12-26T05:03:40.088Z,5.10
2023-12-26T05:06:13.994Z,5.40
2023-12-26T05:09:10.484Z,4.70
2023-12-26T05:11:48.188Z,7.20
2023-12-26T05:14:20.557Z,6.90
2023-12-26T05:16:52.318Z,7.70
2023-12-26T05:19:22.965Z,8.50
2023-12-26T05:21:54.272Z,8.80
2023-12-26T05:24:24.996Z,6.20
2023-12-26T05:26:54.256Z,4.40
2023-12-26T05:29:28.417Z,5.00
2023-12-26T05:32:00.962Z,5.90
2023-12-26T05:34:32.792Z,5.40
2023-12-26T05:37:05.271Z,4.60
2023-12-26T05:39:37.001Z,5.90
2023-12-26T05:42:06.252Z,6.40
2023-12-26T05:44:38.533Z,7.60
2023-12-26T05:47:09.838Z,5.70
2023-12-26T05:49:40.589Z,6.70
2023-12-26T05:52:20.171Z,5.50
2023-12-26T05:54:49.774Z,6.00
2023-12-26T05:57:22.801Z,7.00
2023-12-26T05:59:57.350Z,6.30
2023-12-26T06:02:33.835Z,5.40
2023-12-26T06:05:31.846Z,10.10
2023-12-26T06:08:05.042Z,5.70
2023-12-26T06:10:47.688Z,5.80
2023-12-26T06:13:21.725Z,6.30
2023-12-26T06:16:18.247Z,10.00
2023-12-26T06:18:56.921Z,5.70
2023-12-26T06:21:30.504Z,5.90
2023-12-26T06:25:13.095Z,5.60
2023-12-26T06:27:45.062Z,8.80
2023-12-26T06:30:23.506Z,10.20
2023-12-26T06:42:12.936Z,12.60
2023-12-26T06:45:01.277Z,15.40
2023-12-26T06:47:31.225Z,14.80
2023-12-26T06:50:08.989Z,16.20
2023-12-26T06:52:37.054Z,22.60
2023-12-26T06:55:04.805Z,13.10
2023-12-26T06:57:32.478Z,12.60
2023-12-26T06:59:59.864Z,34.10
2023-12-26T07:02:27.412Z,8.90
2023-12-26T07:04:54.812Z,7.00
2023-12-26T07:07:22.815Z,10.90
2023-12-26T07:09:50.440Z,9.80
2023-12-26T07:12:18.128Z,8.40
2023-12-26T07:14:45.731Z,11.70
2023-12-26T07:17:13.105Z,9.80
2023-12-26T07:19:40.670Z,10.60
2023-12-26T07:24:57.955Z,7.50
2023-12-26T07:27:26.911Z,6.00
2023-12-26T07:30:06.477Z,6.90
2023-12-26T07:32:42.384Z,6.60
2023-12-26T07:35:21.466Z,5.60
2023-12-26T07:37:53.470Z,5.80
2023-12-26T07:43:55.912Z,9.90
2023-12-26T07:46:27.074Z,4.10
2023-12-26T07:48:58.356Z,5.60
2023-12-26T07:51:27.845Z,5.40
2023-12-26T07:53:56.181Z,6.20
2023-12-26T07:56:24.225Z,7.80
2023-12-26T07:58:54.131Z,5.10
2023-12-26T08:01:28.965Z,7.70
2023-12-26T08:04:13.996Z,6.40
2023-12-26T08:06:45.685Z,6.20
2023-12-26T08:09:24.985Z,6.50
2023-12-26T08:11:59.276Z,7.30
2023-12-26T08:14:34.830Z,6.00
2023-12-26T08:17:18.322Z,5.50
2023-12-26T08:19:48.017Z,6.50
2023-12-26T08:22:17.736Z,5.30
2023-12-26T08:24:54.112Z,5.80
2023-12-26T08:27:27.663Z,6.10
2023-12-26T08:32:43.561Z,5.80
2023-12-26T08:35:22.613Z,7.70
2023-12-26T08:37:56.831Z,6.30
2023-12-26T08:40:28.205Z,5.40
2023-12-26T08:43:00.063Z,6.00
2023-12-26T08:45:30.663Z,4.70
2023-12-26T08:48:28.911Z,5.90
2023-12-26T08:51:06.229Z,7.20
2023-12-26T08:53:38.372Z,5.70
2023-12-26T08:56:26.127Z,6.40
2023-12-26T08:59:04.640Z,7.10
2023-12-26T09:02:26.846Z,4.90
2023-12-26T09:05:20.888Z,5.10
2023-12-26T09:07:57.774Z,5.60
2023-12-26T09:10:28.067Z,7.10
2023-12-26T09:12:59.890Z,7.30
2023-12-26T09:32:11.129Z,6.70
2023-12-26T09:34:51.520Z,5.90
2023-12-26T09:37:41.986Z,7.20
2023-12-26T09:40:15.194Z,7.30
2023-12-26T09:43:08.007Z,6.90
2023-12-26T09:45:43.076Z,6.60
2023-12-26T09:48:20.053Z,6.20
2023-12-26T09:51:06.952Z,7.40
2023-12-26T09:53:43.206Z,4.80
2023-12-26T09:56:25.233Z,7.30
2023-12-26T09:59:06.355Z,5.50
2023-12-26T10:01:37.370Z,6.00
2023-12-26T10:04:11.237Z,9.40
2023-12-26T10:06:45.362Z,5.40
2023-12-26T10:09:25.704Z,5.20
2023-12-26T10:12:02.607Z,5.60
2023-12-26T10:15:06.947Z,6.90
2023-12-26T10:18:07.003Z,5.80
2023-12-26T10:20:43.193Z,7.60
2023-12-26T10:23:20.676Z,5.70
2023-12-26T10:25:54.861Z,5.70
2023-12-26T10:28:42.825Z,5.10
2023-12-26T10:34:30.399Z,6.60
2023-12-26T10:37:55.746Z,5.20
2023-12-26T10:40:28.381Z,5.30
2023-12-26T10:42:59.866Z,6.00
2023-12-26T10:45:32.905Z,4.30
2023-12-26T10:48:11.166Z,6.60
2023-12-26T10:50:57.485Z,3.80
2023-12-26T10:53:27.728Z,4.70
2023-12-26T10:56:09.107Z,4.40
2023-12-26T10:58:39.606Z,5.10
2023-12-26T11:04:27.158Z,8.80
2023-12-26T11:08:19.161Z,5.00
2023-12-26T11:12:14.957Z,5.90
2023-12-26T11:16:00.169Z,5.80
2023-12-26T11:19:49.424Z,5.70
2023-12-26T11:23:41.178Z,7.30
2023-12-26T11:27:48.662Z,5.70
2023-12-26T11:31:34.386Z,7.20
2023-12-26T11:35:24.204Z,6.00
2023-12-26T11:39:10.353Z,5.50
2023-12-26T11:43:04.282Z,4.70
2023-12-26T11:47:45.791Z,5.10
2023-12-26T11:51:23.089Z,5.50
2023-12-26T11:55:23.187Z,4.70
2023-12-26T12:31:33.623Z,18.70
2023-12-26T12:35:22.553Z,13.00
2023-12-26T12:39:14.872Z,14.50
2023-12-26T12:43:04.288Z,16.30
2023-12-26T12:46:58.195Z,15.20
2023-12-26T12:50:50.237Z,13.80
2023-12-26T12:54:38.188Z,10.50
2023-12-26T12:58:30.438Z,19.40
2023-12-26T13:02:17.474Z,18.40
2023-12-26T13:06:11.416Z,12.00
2023-12-26T13:09:57.586Z,9.60
2023-12-26T13:13:48.351Z,10.50
2023-12-26T13:17:37.178Z,13.60
2023-12-26T13:21:29.639Z,19.20
2023-12-26T13:25:18.426Z,49.40
2023-12-26T13:29:06.422Z,48.20
2023-12-26T13:32:59.773Z,36.90
2023-12-26T13:36:45.225Z,23.10
2023-12-26T13:40:31.774Z,14.10
2023-12-26T13:44:29.507Z,11.20
2023-12-26T13:52:58.179Z,16.90
2023-12-26T13:56:14.832Z,11.40
2023-12-26T13:59:10.606Z,13.10
2023-12-26T14:16:16.514Z,11.70
2023-12-26T14:23:36.302Z,12.40
2023-12-26T14:31:48.404Z,13.20
2023-12-26T14:34:21.395Z,12.90
2023-12-26T14:41:58.945Z,11.00
2023-12-26T15:02:52.654Z,15.20
2023-12-26T15:06:36.920Z,11.70
2023-12-26T15:13:44.701Z,18.60
2023-12-26T15:22:03.314Z,19.00
2023-12-26T15:24:40.699Z,19.60
2023-12-26T15:27:16.778Z,18.50
2023-12-26T15:32:15.949Z,24.70
2023-12-26T15:34:45.134Z,22.90
2023-12-26T15:37:17.514Z,21.20
2023-12-26T15:39:48.412Z,16.50
2023-12-26T15:42:18.072Z,14.90
2023-12-26T15:44:49.969Z,18.00
2023-12-26T15:47:20.594Z,23.50
2023-12-26T15:49:50.902Z,18.80
2023-12-26T15:52:19.853Z,18.40
2023-12-26T15:54:49.102Z,19.60
2023-12-26T15:57:21.086Z,16.20
2023-12-26T15:59:54.723Z,12.10
2023-12-26T16:02:25.514Z,14.20
2023-12-26T16:05:01.101Z,9.00
2023-12-26T16:07:32.106Z,10.20
2023-12-26T16:10:01.645Z,11.60
2023-12-26T16:12:34.865Z,7.00
2023-12-26T16:15:05.120Z,9.30
2023-12-26T16:17:41.157Z,7.40
2023-12-26T16:20:32.526Z,6.50
2023-12-26T16:23:07.521Z,8.80
2023-12-26T16:25:39.240Z,7.80
2023-12-26T16:28:09.910Z,7.20
2023-12-26T16:30:39.865Z,6.70
2023-12-26T16:33:13.395Z,7.50
2023-12-26T16:35:46.096Z,7.80
2023-12-26T16:38:16.314Z,9.20
2023-12-26T16:40:44.278Z,7.80
2023-12-26T16:43:15.198Z,7.60
2023-12-26T16:45:43.657Z,7.90
2023-12-26T16:48:19.554Z,8.10
2023-12-26T16:50:49.989Z,6.90
2023-12-26T16:53:19.034Z,7.70
2023-12-26T16:56:25.812Z,7.20
2023-12-26T16:59:04.592Z,9.10
2023-12-26T17:01:38.049Z,7.80
2023-12-26T17:04:08.418Z,7.80
2023-12-26T17:06:47.956Z,10.20
2023-12-26T17:09:19.516Z,8.00
2023-12-26T17:11:49.764Z,6.60
2023-12-26T17:14:25.776Z,9.50
2023-12-26T17:17:26.166Z,8.80
2023-12-26T17:19:58.215Z,6.40
2023-12-26T17:22:31.176Z,7.10
2023-12-26T17:25:12.391Z,5.50
2023-12-26T17:28:13.380Z,8.60
2023-12-26T17:30:44.414Z,6.60
2023-12-26T17:33:42.488Z,6.70
2023-12-26T17:36:29.999Z,7.90
2023-12-26T17:42:49.348Z,7.80
2023-12-26T17:45:29.188Z,10.30
2023-12-26T17:48:01.311Z,7.70
2023-12-26T17:50:30.117Z,20.80
2023-12-26T17:53:03.137Z,24.30
2023-12-26T17:55:35.306Z,16.70
2023-12-26T17:58:34.865Z,9.10
2023-12-26T18:01:16.718Z,31.60
2023-12-26T18:03:47.797Z,16.80
2023-12-26T18:06:37.429Z,13.40
2023-12-26T18:09:12.839Z,13.60
2023-12-26T18:12:11.994Z,7.20
2023-12-26T18:14:40.528Z,6.20
2023-12-26T18:17:13.733Z,9.50
2023-12-26T18:19:47.015Z,9.30
2023-12-26T18:22:17.849Z,12.40
2023-12-26T18:29:42.727Z,7.70
2023-12-26T18:37:18.803Z,9.00
2023-12-26T18:40:21.335Z,9.90
2023-12-26T18:43:41.628Z,9.90
2023-12-26T18:49:33.023Z,8.30
2023-12-26T18:52:07.219Z,6.80
2023-12-26T18:54:40.879Z,10.60
2023-12-26T18:57:20.093Z,9.20
2023-12-26T18:59:57.072Z,17.40
2023-12-26T19:02:27.051Z,11.50
2023-12-26T19:04:58.234Z,7.90
2023-12-26T19:08:03.122Z,5.70
